sensor_id;sensor_type;location;lat;lon;timestamp;pressure;altitude;pressure_sealevel;temperature;humidity
19576;BME280;41589;51.196;7.074;2023-01-29T00:01:13;100297.75;;;0.19;100.00
19576;BME280;41589;51.196;7.074;2023-01-29T00:06:21;100286.03;;;0.06;100.00
19576;BME280;41589;51.196;7.074;2023-01-29T00:11:32;100281.66;;;0.05;100.00
19576;BME280;41589;51.196;7.074;2023-01-29T00:16:38;100282.09;;;0.07;100.00
19576;BME280;41589;51.196;7.074;2023-01-29T00:21:44;100275.25;;;0.01;99.83
19576;BME280;41589;51.196;7.074;2023-01-29T00:26:56;100259.34;;;-0.02;98.78
19576;BME280;41589;51.196;7.074;2023-01-29T00:31:58;100271.25;;;-0.02;99.25
19576;BME280;41589;51.196;7.074;2023-01-29T00:37:08;100257.31;;;-0.05;98.17
19576;BME280;41589;51.196;7.074;2023-01-29T00:42:10;100248.28;;;-0.02;98.85
19576;BME280;41589;51.196;7.074;2023-01-29T00:47:35;100264.03;;;-0.06;98.13
19576;BME280;41589;51.196;7.074;2023-01-29T00:52:40;100260.97;;;-0.01;98.88
19576;BME280;41589;51.196;7.074;2023-01-29T00:57:44;100260.66;;;0.04;98.49
19576;BME280;41589;51.196;7.074;2023-01-29T01:02:49;100266.94;;;0.01;98.79
19576;BME280;41589;51.196;7.074;2023-01-29T01:08:09;100260.66;;;0.04;98.15
19576;BME280;41589;51.196;7.074;2023-01-29T01:13:37;100252.88;;;-0.10;97.80
19576;BME280;41589;51.196;7.074;2023-01-29T01:18:42;100249.31;;;-0.10;97.67
19576;BME280;41589;51.196;7.074;2023-01-29T01:23:48;100261.56;;;-0.11;97.45
19576;BME280;41589;51.196;7.074;2023-01-29T01:28:53;100260.59;;;0.00;99.22
19576;BME280;41589;51.196;7.074;2023-01-29T01:33:59;100264.97;;;0.01;99.13
19576;BME280;41589;51.196;7.074;2023-01-29T01:39:06;100255.44;;;-0.01;98.81
19576;BME280;41589;51.196;7.074;2023-01-29T01:49:53;100225.25;;;-0.26;96.90
19576;BME280;41589;51.196;7.074;2023-01-29T01:54:57;100217.75;;;-0.25;96.13
19576;BME280;41589;51.196;7.074;2023-01-29T02:00:10;100225.34;;;-0.22;96.37
19576;BME280;41589;51.196;7.074;2023-01-29T02:05:18;100215.09;;;-0.21;95.76
19576;BME280;41589;51.196;7.074;2023-01-29T02:10:45;100221.25;;;-0.28;95.83
19576;BME280;41589;51.196;7.074;2023-01-29T02:15:50;100228.81;;;-0.25;95.71
19576;BME280;41589;51.196;7.074;2023-01-29T02:27:05;100239.09;;;-0.26;94.96
19576;BME280;41589;51.196;7.074;2023-01-29T02:37:35;100235.72;;;-0.35;94.90
19576;BME280;41589;51.196;7.074;2023-01-29T02:42:52;100251.75;;;-0.24;94.91
19576;BME280;41589;51.196;7.074;2023-01-29T02:48:00;100260.38;;;-0.10;96.70
19576;BME280;41589;51.196;7.074;2023-01-29T02:58:42;100276.25;;;-0.07;96.65
19576;BME280;41589;51.196;7.074;2023-01-29T03:04:20;100268.31;;;-0.09;97.58
19576;BME280;41589;51.196;7.074;2023-01-29T03:14:36;100252.56;;;-0.24;95.19
19576;BME280;41589;51.196;7.074;2023-01-29T03:19:57;100250.25;;;-0.22;94.77
19576;BME280;41589;51.196;7.074;2023-01-29T03:25:01;100244.00;;;-0.19;94.54
19576;BME280;41589;51.196;7.074;2023-01-29T03:30:24;100246.75;;;-0.19;94.66
19576;BME280;41589;51.196;7.074;2023-01-29T03:36:28;100242.19;;;-0.11;95.20
19576;BME280;41589;51.196;7.074;2023-01-29T03:41:56;100257.88;;;-0.15;94.25
19576;BME280;41589;51.196;7.074;2023-01-29T03:47:16;100263.44;;;-0.15;94.63
19576;BME280;41589;51.196;7.074;2023-01-29T03:52:27;100264.16;;;-0.18;92.62
19576;BME280;41589;51.196;7.074;2023-01-29T03:58:08;100247.75;;;-0.27;92.40
19576;BME280;41589;51.196;7.074;2023-01-29T04:08:31;100238.44;;;-0.38;92.11
19576;BME280;41589;51.196;7.074;2023-01-29T04:13:39;100229.03;;;-0.34;91.66
19576;BME280;41589;51.196;7.074;2023-01-29T04:18:44;100232.97;;;-0.35;91.69
19576;BME280;41589;51.196;7.074;2023-01-29T04:23:46;100216.47;;;-0.31;91.32
19576;BME280;41589;51.196;7.074;2023-01-29T04:29:14;100213.25;;;-0.33;92.28
19576;BME280;41589;51.196;7.074;2023-01-29T04:34:28;100222.50;;;-0.26;91.92
19576;BME280;41589;51.196;7.074;2023-01-29T04:39:57;100211.84;;;-0.23;92.27
19576;BME280;41589;51.196;7.074;2023-01-29T04:45:22;100214.34;;;-0.18;91.62
19576;BME280;41589;51.196;7.074;2023-01-29T04:50:34;100208.44;;;-0.17;92.41
19576;BME280;41589;51.196;7.074;2023-01-29T04:55:50;100197.44;;;-0.13;92.06
19576;BME280;41589;51.196;7.074;2023-01-29T05:00:57;100184.06;;;-0.11;92.51
19576;BME280;41589;51.196;7.074;2023-01-29T05:06:03;100199.56;;;-0.07;92.56
19576;BME280;41589;51.196;7.074;2023-01-29T05:11:05;100183.25;;;-0.12;91.04
19576;BME280;41589;51.196;7.074;2023-01-29T05:16:14;100177.25;;;-0.14;91.93
19576;BME280;41589;51.196;7.074;2023-01-29T05:21:18;100174.28;;;-0.05;91.91
19576;BME280;41589;51.196;7.074;2023-01-29T05:26:20;100174.69;;;-0.03;92.22
19576;BME280;41589;51.196;7.074;2023-01-29T05:31:43;100166.13;;;0.02;92.75
19576;BME280;41589;51.196;7.074;2023-01-29T05:36:43;100168.44;;;-0.00;90.89
19576;BME280;41589;51.196;7.074;2023-01-29T05:41:44;100159.25;;;-0.04;91.13
19576;BME280;41589;51.196;7.074;2023-01-29T05:46:45;100169.09;;;-0.07;90.33
19576;BME280;41589;51.196;7.074;2023-01-29T05:51:46;100165.38;;;-0.14;89.78
19576;BME280;41589;51.196;7.074;2023-01-29T05:56:47;100158.41;;;-0.08;90.45
19576;BME280;41589;51.196;7.074;2023-01-29T06:01:48;100164.00;;;-0.05;90.24
19576;BME280;41589;51.196;7.074;2023-01-29T06:06:50;100186.56;;;-0.03;90.78
19576;BME280;41589;51.196;7.074;2023-01-29T06:11:51;100183.75;;;-0.06;89.54
19576;BME280;41589;51.196;7.074;2023-01-29T06:16:52;100187.25;;;-0.09;89.57
19576;BME280;41589;51.196;7.074;2023-01-29T06:21:53;100193.66;;;-0.05;89.01
19576;BME280;41589;51.196;7.074;2023-01-29T06:26:55;100207.22;;;-0.00;89.36
19576;BME280;41589;51.196;7.074;2023-01-29T06:31:57;100208.81;;;0.01;89.20
19576;BME280;41589;51.196;7.074;2023-01-29T06:36:57;100215.63;;;0.07;88.66
19576;BME280;41589;51.196;7.074;2023-01-29T06:41:58;100229.63;;;0.14;88.62
19576;BME280;41589;51.196;7.074;2023-01-29T06:46:59;100224.16;;;0.18;88.46
19576;BME280;41589;51.196;7.074;2023-01-29T06:52:00;100222.69;;;0.24;88.36
19576;BME280;41589;51.196;7.074;2023-01-29T06:57:01;100212.00;;;0.22;88.00
19576;BME280;41589;51.196;7.074;2023-01-29T07:02:02;100212.56;;;0.31;87.73
19576;BME280;41589;51.196;7.074;2023-01-29T07:07:04;100204.91;;;0.25;86.82
19576;BME280;41589;51.196;7.074;2023-01-29T07:12:05;100213.28;;;0.28;87.12
19576;BME280;41589;51.196;7.074;2023-01-29T07:17:05;100212.75;;;0.42;88.21
19576;BME280;41589;51.196;7.074;2023-01-29T07:22:06;100219.53;;;0.45;87.83
19576;BME280;41589;51.196;7.074;2023-01-29T07:27:06;100219.56;;;0.48;87.04
19576;BME280;41589;51.196;7.074;2023-01-29T07:32:07;100205.44;;;0.53;87.08
19576;BME280;41589;51.196;7.074;2023-01-29T07:37:07;100228.78;;;0.75;88.38
19576;BME280;41589;51.196;7.074;2023-01-29T07:42:08;100218.16;;;0.81;88.04
19576;BME280;41589;51.196;7.074;2023-01-29T07:47:08;100203.34;;;0.93;88.44
19576;BME280;41589;51.196;7.074;2023-01-29T07:52:08;100193.94;;;1.01;87.99
19576;BME280;41589;51.196;7.074;2023-01-29T07:57:09;100214.53;;;1.00;88.03
19576;BME280;41589;51.196;7.074;2023-01-29T08:02:09;100205.94;;;1.08;87.99
19576;BME280;41589;51.196;7.074;2023-01-29T08:07:09;100191.69;;;1.10;87.81
19576;BME280;41589;51.196;7.074;2023-01-29T08:12:10;100204.00;;;1.12;87.35
19576;BME280;41589;51.196;7.074;2023-01-29T08:17:11;100195.06;;;1.23;88.22
19576;BME280;41589;51.196;7.074;2023-01-29T08:22:12;100212.19;;;1.28;87.73
19576;BME280;41589;51.196;7.074;2023-01-29T08:27:14;100201.75;;;1.18;86.57
19576;BME280;41589;51.196;7.074;2023-01-29T08:32:14;100200.19;;;1.21;86.53
19576;BME280;41589;51.196;7.074;2023-01-29T08:37:15;100184.34;;;1.21;86.55
19576;BME280;41589;51.196;7.074;2023-01-29T08:42:15;100176.97;;;1.32;87.02
19576;BME280;41589;51.196;7.074;2023-01-29T08:47:15;100196.34;;;1.29;85.42
19576;BME280;41589;51.196;7.074;2023-01-29T08:52:16;100189.16;;;1.24;85.06
19576;BME280;41589;51.196;7.074;2023-01-29T08:57:16;100188.19;;;1.13;84.72
19576;BME280;41589;51.196;7.074;2023-01-29T09:02:16;100184.41;;;1.25;85.42
19576;BME280;41589;51.196;7.074;2023-01-29T09:07:17;100176.00;;;1.21;84.87
19576;BME280;41589;51.196;7.074;2023-01-29T09:12:17;100171.28;;;1.22;86.02
19576;BME280;41589;51.196;7.074;2023-01-29T09:17:17;100174.03;;;1.22;84.84
19576;BME280;41589;51.196;7.074;2023-01-29T09:22:19;100176.41;;;1.19;84.69
19576;BME280;41589;51.196;7.074;2023-01-29T09:27:19;100179.28;;;1.27;84.44
19576;BME280;41589;51.196;7.074;2023-01-29T09:32:19;100155.16;;;1.31;84.30
19576;BME280;41589;51.196;7.074;2023-01-29T09:37:20;100166.00;;;1.43;84.66
19576;BME280;41589;51.196;7.074;2023-01-29T09:42:39;100149.94;;;1.56;85.01
19576;BME280;41589;51.196;7.074;2023-01-29T09:47:43;100143.34;;;1.67;84.40
19576;BME280;41589;51.196;7.074;2023-01-29T09:52:49;100150.59;;;1.75;84.08
19576;BME280;41589;51.196;7.074;2023-01-29T09:57:57;100145.50;;;1.81;83.31
19576;BME280;41589;51.196;7.074;2023-01-29T10:13:51;100147.97;;;1.90;83.20
19576;BME280;41589;51.196;7.074;2023-01-29T10:19:06;100140.34;;;1.83;80.88
19576;BME280;41589;51.196;7.074;2023-01-29T10:24:44;100139.16;;;1.84;81.98
19576;BME280;41589;51.196;7.074;2023-01-29T10:29:52;100144.41;;;1.89;82.32
19576;BME280;41589;51.196;7.074;2023-01-29T10:35:01;100141.72;;;1.96;83.26
19576;BME280;41589;51.196;7.074;2023-01-29T10:40:36;100151.38;;;2.10;82.56
19576;BME280;41589;51.196;7.074;2023-01-29T10:56:57;100099.69;;;2.42;82.28
19576;BME280;41589;51.196;7.074;2023-01-29T11:02:19;100071.91;;;2.42;82.38
19576;BME280;41589;51.196;7.074;2023-01-29T11:07:29;100062.75;;;2.42;81.63
19576;BME280;41589;51.196;7.074;2023-01-29T11:12:34;100075.97;;;2.55;81.82
19576;BME280;41589;51.196;7.074;2023-01-29T11:18:19;100069.69;;;2.66;82.72
19576;BME280;41589;51.196;7.074;2023-01-29T11:23:30;100060.91;;;2.60;80.24
19576;BME280;41589;51.196;7.074;2023-01-29T11:28:43;100056.09;;;2.53;79.93
19576;BME280;41589;51.196;7.074;2023-01-29T11:33:47;100047.44;;;2.62;80.28
19576;BME280;41589;51.196;7.074;2023-01-29T11:39:24;100046.78;;;2.86;83.23
19576;BME280;41589;51.196;7.074;2023-01-29T11:44:32;100043.28;;;3.00;80.88
19576;BME280;41589;51.196;7.074;2023-01-29T11:49:53;100039.34;;;3.08;80.42
19576;BME280;41589;51.196;7.074;2023-01-29T11:55:01;100027.84;;;3.13;81.49
19576;BME280;41589;51.196;7.074;2023-01-29T12:00:25;100015.53;;;3.18;80.35
19576;BME280;41589;51.196;7.074;2023-01-29T12:05:30;99998.84;;;3.18;80.00
19576;BME280;41589;51.196;7.074;2023-01-29T12:10:37;99998.44;;;3.16;79.57
19576;BME280;41589;51.196;7.074;2023-01-29T12:15:41;99996.91;;;3.22;80.49
19576;BME280;41589;51.196;7.074;2023-01-29T12:21:00;99979.78;;;3.20;79.89
19576;BME280;41589;51.196;7.074;2023-01-29T12:26:06;99968.63;;;3.20;80.33
19576;BME280;41589;51.196;7.074;2023-01-29T12:31:30;99944.34;;;3.10;79.62
19576;BME280;41589;51.196;7.074;2023-01-29T12:36:49;99922.19;;;3.35;81.20
19576;BME280;41589;51.196;7.074;2023-01-29T12:42:01;99912.59;;;3.14;78.60
19576;BME280;41589;51.196;7.074;2023-01-29T12:48:13;99903.03;;;3.05;79.75
19576;BME280;41589;51.196;7.074;2023-01-29T12:58:11;99875.28;;;3.33;81.10
19576;BME280;41589;51.196;7.074;2023-01-29T13:08:29;99843.47;;;3.24;79.22
19576;BME280;41589;51.196;7.074;2023-01-29T13:13:34;99845.03;;;3.25;80.06
19576;BME280;41589;51.196;7.074;2023-01-29T13:18:45;99843.47;;;3.24;79.98
19576;BME280;41589;51.196;7.074;2023-01-29T13:23:53;99844.66;;;3.33;80.55
19576;BME280;41589;51.196;7.074;2023-01-29T13:28:56;99842.66;;;3.23;79.30
19576;BME280;41589;51.196;7.074;2023-01-29T13:34:23;99836.28;;;3.30;80.15
19576;BME280;41589;51.196;7.074;2023-01-29T13:39:30;99827.97;;;3.33;80.84
19576;BME280;41589;51.196;7.074;2023-01-29T13:44:34;99837.88;;;3.13;78.88
19576;BME280;41589;51.196;7.074;2023-01-29T13:49:43;99836.66;;;3.10;80.18
19576;BME280;41589;51.196;7.074;2023-01-29T13:55:07;99845.81;;;3.18;80.72
19576;BME280;41589;51.196;7.074;2023-01-29T14:10:33;99841.06;;;3.22;79.31
19576;BME280;41589;51.196;7.074;2023-01-29T14:15:35;99843.03;;;3.14;79.85
19576;BME280;41589;51.196;7.074;2023-01-29T14:25:47;99841.47;;;3.24;80.77
19576;BME280;41589;51.196;7.074;2023-01-29T14:30:51;99827.91;;;3.08;80.72
19576;BME280;41589;51.196;7.074;2023-01-29T14:35:56;99826.75;;;3.13;80.52
19576;BME280;41589;51.196;7.074;2023-01-29T14:41:08;99821.97;;;3.20;81.46
19576;BME280;41589;51.196;7.074;2023-01-29T14:51:35;99829.94;;;3.40;82.32
19576;BME280;41589;51.196;7.074;2023-01-29T14:56:58;99817.63;;;3.34;81.55
19576;BME280;41589;51.196;7.074;2023-01-29T15:02:04;99825.16;;;3.19;79.99
19576;BME280;41589;51.196;7.074;2023-01-29T15:07:21;99832.34;;;3.34;82.29
19576;BME280;41589;51.196;7.074;2023-01-29T15:12:27;99825.16;;;3.37;82.04
19576;BME280;41589;51.196;7.074;2023-01-29T15:17:45;99816.03;;;3.40;82.67
19576;BME280;41589;51.196;7.074;2023-01-29T15:23:02;99822.38;;;3.37;81.47
19576;BME280;41589;51.196;7.074;2023-01-29T15:28:03;99821.59;;;3.40;81.60
19576;BME280;41589;51.196;7.074;2023-01-29T15:33:12;99816.03;;;3.33;81.38
19576;BME280;41589;51.196;7.074;2023-01-29T15:38:15;99800.91;;;3.37;81.38
19576;BME280;41589;51.196;7.074;2023-01-29T15:43:21;99807.69;;;3.36;82.04
19576;BME280;41589;51.196;7.074;2023-01-29T15:48:33;99802.91;;;3.44;81.58
19576;BME280;41589;51.196;7.074;2023-01-29T15:53:48;99795.75;;;3.46;81.81
19576;BME280;41589;51.196;7.074;2023-01-29T15:58:51;99788.97;;;3.51;81.97
19576;BME280;41589;51.196;7.074;2023-01-29T16:03:56;99783.00;;;3.49;82.17
19576;BME280;41589;51.196;7.074;2023-01-29T16:09:00;99784.59;;;3.50;82.00
19576;BME280;41589;51.196;7.074;2023-01-29T16:14:05;99779.84;;;3.54;81.88
19576;BME280;41589;51.196;7.074;2023-01-29T16:19:21;99783.44;;;3.55;81.46
19576;BME280;41589;51.196;7.074;2023-01-29T16:24:23;99779.44;;;3.59;81.79
19576;BME280;41589;51.196;7.074;2023-01-29T16:29:30;99770.69;;;3.54;81.95
19576;BME280;41589;51.196;7.074;2023-01-29T16:34:34;99766.31;;;3.49;82.10
19576;BME280;41589;51.196;7.074;2023-01-29T16:39:38;99767.13;;;3.42;81.79
19576;BME280;41589;51.196;7.074;2023-01-29T16:44:52;99767.13;;;3.46;81.44
19576;BME280;41589;51.196;7.074;2023-01-29T16:49:58;99754.81;;;3.29;80.80
19576;BME280;41589;51.196;7.074;2023-01-29T16:55:13;99743.66;;;3.36;81.23
19576;BME280;41589;51.196;7.074;2023-01-29T17:00:24;99744.06;;;3.42;82.14
19576;BME280;41589;51.196;7.074;2023-01-29T17:05:29;99724.56;;;3.49;82.09
19576;BME280;41589;51.196;7.074;2023-01-29T17:10:33;99730.91;;;3.49;81.75
19576;BME280;41589;51.196;7.074;2023-01-29T17:20:43;99723.41;;;3.43;81.43
19576;BME280;41589;51.196;7.074;2023-01-29T17:25:44;99717.03;;;3.35;80.66
19576;BME280;41589;51.196;7.074;2023-01-29T17:30:45;99699.94;;;3.37;80.63
19576;BME280;41589;51.196;7.074;2023-01-29T17:35:45;99695.56;;;3.43;81.61
19576;BME280;41589;51.196;7.074;2023-01-29T17:40:58;99701.94;;;3.43;81.27
19576;BME280;41589;51.196;7.074;2023-01-29T17:45:59;99699.53;;;3.45;80.86
19576;BME280;41589;51.196;7.074;2023-01-29T17:51:02;99699.53;;;3.42;81.36
19576;BME280;41589;51.196;7.074;2023-01-29T17:56:03;99699.09;;;3.50;81.73
19576;BME280;41589;51.196;7.074;2023-01-29T18:01:04;99704.31;;;3.45;80.64
19576;BME280;41589;51.196;7.074;2023-01-29T18:06:07;99701.13;;;3.43;80.33
19576;BME280;41589;51.196;7.074;2023-01-29T18:11:10;99686.78;;;3.48;81.30
19576;BME280;41589;51.196;7.074;2023-01-29T18:16:11;99686.78;;;3.41;80.77
19576;BME280;41589;51.196;7.074;2023-01-29T18:21:12;99678.03;;;3.49;81.28
19576;BME280;41589;51.196;7.074;2023-01-29T18:26:15;99673.66;;;3.41;79.36
19576;BME280;41589;51.196;7.074;2023-01-29T18:31:15;99676.44;;;3.52;81.47
19576;BME280;41589;51.196;7.074;2023-01-29T18:36:16;99663.72;;;3.55;80.77
19576;BME280;41589;51.196;7.074;2023-01-29T18:41:16;99650.97;;;3.57;81.76
19576;BME280;41589;51.196;7.074;2023-01-29T18:46:17;99639.03;;;3.60;80.87
19576;BME280;41589;51.196;7.074;2023-01-29T18:51:18;99624.31;;;3.60;81.19
19576;BME280;41589;51.196;7.074;2023-01-29T18:56:18;99624.72;;;3.58;80.83
19576;BME280;41589;51.196;7.074;2023-01-29T19:01:19;99628.75;;;3.46;80.50
19576;BME280;41589;51.196;7.074;2023-01-29T19:06:19;99629.53;;;3.47;80.10
19576;BME280;41589;51.196;7.074;2023-01-29T19:11:19;99622.41;;;3.42;80.35
19576;BME280;41589;51.196;7.074;2023-01-29T19:16:20;99615.59;;;3.50;81.28
19576;BME280;41589;51.196;7.074;2023-01-29T19:21:20;99612.03;;;3.54;80.35
19576;BME280;41589;51.196;7.074;2023-01-29T19:26:21;99611.66;;;3.44;80.22
19576;BME280;41589;51.196;7.074;2023-01-29T19:31:21;99596.13;;;3.47;81.47
19576;BME280;41589;51.196;7.074;2023-01-29T19:36:21;99591.38;;;3.44;80.19
19576;BME280;41589;51.196;7.074;2023-01-29T19:41:22;99602.91;;;3.46;80.99
19576;BME280;41589;51.196;7.074;2023-01-29T19:46:22;99593.34;;;3.54;81.22
19576;BME280;41589;51.196;7.074;2023-01-29T19:51:23;99579.81;;;3.56;81.72
19576;BME280;41589;51.196;7.074;2023-01-29T19:56:23;99557.56;;;3.49;81.14
19576;BME280;41589;51.196;7.074;2023-01-29T20:01:24;99547.22;;;3.53;81.75
19576;BME280;41589;51.196;7.074;2023-01-29T20:06:27;99545.59;;;3.52;81.31
19576;BME280;41589;51.196;7.074;2023-01-29T20:11:27;99535.72;;;3.40;81.49
19576;BME280;41589;51.196;7.074;2023-01-29T20:16:28;99521.41;;;3.38;80.82
19576;BME280;41589;51.196;7.074;2023-01-29T20:21:28;99520.22;;;3.39;81.36
19576;BME280;41589;51.196;7.074;2023-01-29T20:26:28;99501.13;;;3.41;81.62
19576;BME280;41589;51.196;7.074;2023-01-29T20:31:29;99494.03;;;3.33;81.65
19576;BME280;41589;51.196;7.074;2023-01-29T20:36:29;99487.66;;;3.36;82.70
19576;BME280;41589;51.196;7.074;2023-01-29T20:41:29;99482.91;;;3.26;82.65
19576;BME280;41589;51.196;7.074;2023-01-29T20:46:30;99466.25;;;3.19;83.03
19576;BME280;41589;51.196;7.074;2023-01-29T20:51:30;99466.66;;;3.17;82.57
19576;BME280;41589;51.196;7.074;2023-01-29T20:56:31;99459.91;;;3.22;83.44
19576;BME280;41589;51.196;7.074;2023-01-29T21:01:31;99473.41;;;3.24;83.24
19576;BME280;41589;51.196;7.074;2023-01-29T21:06:32;99465.06;;;3.20;82.86
19576;BME280;41589;51.196;7.074;2023-01-29T21:11:32;99452.34;;;3.22;82.74
19576;BME280;41589;51.196;7.074;2023-01-29T21:16:32;99438.09;;;3.13;82.46
19576;BME280;41589;51.196;7.074;2023-01-29T21:21:33;99439.63;;;3.21;83.66
19576;BME280;41589;51.196;7.074;2023-01-29T21:26:34;99447.16;;;3.25;83.73
19576;BME280;41589;51.196;7.074;2023-01-29T21:31:37;99446.69;;;3.37;83.88
19576;BME280;41589;51.196;7.074;2023-01-29T21:36:37;99444.34;;;3.28;82.81
19576;BME280;41589;51.196;7.074;2023-01-29T21:41:38;99418.88;;;3.37;82.95
19576;BME280;41589;51.196;7.074;2023-01-29T21:46:57;99441.88;;;3.41;83.68
19576;BME280;41589;51.196;7.074;2023-01-29T21:51:57;99436.31;;;3.41;83.35
19576;BME280;41589;51.196;7.074;2023-01-29T21:56:57;99424.38;;;3.47;83.36
19576;BME280;41589;51.196;7.074;2023-01-29T22:01:58;99434.72;;;3.47;82.88
19576;BME280;41589;51.196;7.074;2023-01-29T22:06:59;99449.44;;;3.44;83.47
19576;BME280;41589;51.196;7.074;2023-01-29T22:11:59;99452.91;;;3.59;83.61
19576;BME280;41589;51.196;7.074;2023-01-29T22:17:00;99448.97;;;3.56;83.49
19576;BME280;41589;51.196;7.074;2023-01-29T22:22:00;99444.94;;;3.61;83.41
19576;BME280;41589;51.196;7.074;2023-01-29T22:27:04;99433.84;;;3.57;82.70
19576;BME280;41589;51.196;7.074;2023-01-29T22:32:05;99416.31;;;3.60;83.21
19576;BME280;41589;51.196;7.074;2023-01-29T22:37:05;99439.34;;;3.68;83.05
19576;BME280;41589;51.196;7.074;2023-01-29T22:42:06;99427.75;;;3.73;83.96
19576;BME280;41589;51.196;7.074;2023-01-29T22:47:07;99412.25;;;3.75;83.44
19576;BME280;41589;51.196;7.074;2023-01-29T22:52:08;99404.69;;;3.76;83.13
19576;BME280;41589;51.196;7.074;2023-01-29T22:57:13;99407.47;;;3.76;83.74
19576;BME280;41589;51.196;7.074;2023-01-29T23:02:14;99374.94;;;3.66;83.28
19576;BME280;41589;51.196;7.074;2023-01-29T23:07:14;99362.53;;;3.74;84.30
19576;BME280;41589;51.196;7.074;2023-01-29T23:12:15;99347.38;;;3.78;84.57
19576;BME280;41589;51.196;7.074;2023-01-29T23:17:16;99310.78;;;3.76;84.47
19576;BME280;41589;51.196;7.074;2023-01-29T23:22:16;99293.25;;;3.79;84.44
19576;BME280;41589;51.196;7.074;2023-01-29T23:27:17;99310.69;;;3.87;84.63
19576;BME280;41589;51.196;7.074;2023-01-29T23:32:21;99269.72;;;3.88;85.38
19576;BME280;41589;51.196;7.074;2023-01-29T23:37:21;99310.25;;;3.96;85.65
19576;BME280;41589;51.196;7.074;2023-01-29T23:42:22;99314.13;;;4.05;86.15
19576;BME280;41589;51.196;7.074;2023-01-29T23:47:23;99305.00;;;4.01;86.20
19576;BME280;41589;51.196;7.074;2023-01-29T23:52:23;99290.03;;;4.22;87.15
19576;BME280;41589;51.196;7.074;2023-01-29T23:57:23;99280.88;;;4.25;87.76
